Time;durP1;ratioP1;P1;durP2;ratioP2;P2;SDS_P1;SDS_P2;PMS_P1;PMS_P2;Temp;Humidity;BMP_temperature;BMP_pressure;BME280_temperature;BME280_humidity;BME280_pressure;Samples;Min_cycle;Max_cycle;Signal;HPM_P1;HPM_P2
2022/06/17 00:01:32;;;;;;;;;;;;;;;19.01;42.36;98557.00;5064419;28;19920;-63
2022/06/17 00:04:21;;;;;;;;;;;;;;;18.77;42.82;98569.72;5074523;28;19931;-63
2022/06/17 00:07:12;;;;;;;;;;;;;;;18.85;42.98;98570.72;5062460;28;19928;-63
2022/06/17 00:10:01;;;;;;;;;;;;;;;18.79;43.11;98575.69;5060162;28;20011;-62
2022/06/17 00:12:49;;;;;;;;;;;;;;;18.69;43.19;98567.91;5061479;28;19931;-64
2022/06/17 00:15:38;;;;;;;;;;;;;;;18.66;43.19;98571.34;5074554;28;19931;-62
2022/06/17 00:18:28;;;;;;;;;;;;;;;18.56;43.47;98561.63;5064874;28;20019;-62
2022/06/17 00:21:19;;;;;;;;;;;;;;;18.59;43.56;98563.69;5067411;28;19919;-63
2022/06/17 00:24:11;;;;;;;;;;;;;;;18.54;43.82;98572.19;5071111;28;19921;-63
2022/06/17 00:27:00;;;;;;;;;;;;;;;18.44;44.16;98572.66;5069922;28;19921;-62
2022/06/17 00:29:48;;;;;;;;;;;;;;;18.39;44.54;98585.84;5066444;28;19931;-63
2022/06/17 00:32:37;;;;;;;;;;;;;;;18.28;44.92;98578.06;5058950;28;19920;-63
2022/06/17 00:35:28;;;;;;;;;;;;;;;18.28;44.88;98578.06;5050492;28;20326;-61
2022/06/17 00:38:21;;;;;;;;;;;;;;;18.18;45.21;98566.75;5060147;28;20234;-63
2022/06/17 00:41:15;;;;;;;;;;;;;;;18.18;45.16;98580.50;5061994;28;19945;-62
2022/06/17 00:44:18;;;;;;;;;;;;;;;18.23;45.05;98581.06;5065520;28;19920;-62
2022/06/17 00:47:10;;;;;;;;;;;;;;;18.12;45.75;98585.41;5069778;28;19927;-63
2022/06/17 00:49:59;;;;;;;;;;;;;;;18.08;45.66;98595.50;5064393;28;19927;-62
2022/06/17 00:52:50;;;;;;;;;;;;;;;18.05;45.67;98593.41;5079013;28;19928;-62
2022/06/17 00:55:40;;;;;;;;;;;;;;;18.32;45.47;98592.75;5078940;28;19924;-62
2022/06/17 00:58:30;;;;;;;;;;;;;;;18.41;45.18;98591.78;5073880;28;20116;-62
2022/06/17 01:01:19;;;;;;;;;;;;;;;18.48;45.14;98589.25;5065952;28;20374;-63
2022/06/17 01:07:22;;;;;;;;;;;;;;;18.23;45.55;98574.75;5073226;28;20447;-63
2022/06/17 01:10:13;;;;;;;;;;;;;;;18.08;45.64;98578.19;5063754;28;20379;-63
2022/06/17 01:13:03;;;;;;;;;;;;;;;18.01;46.06;98573.28;5062059;28;19920;-63
2022/06/17 01:15:54;;;;;;;;;;;;;;;18.19;45.91;98582.88;5069682;28;19921;-61
2022/06/17 01:18:44;;;;;;;;;;;;;;;18.36;45.43;98578.28;5052530;28;19970;-63
2022/06/17 01:21:34;;;;;;;;;;;;;;;18.24;45.39;98573.59;5060716;28;19928;-62
2022/06/17 01:24:48;;;;;;;;;;;;;;;18.12;45.45;98571.66;5075773;28;19920;-63
2022/06/17 01:27:37;;;;;;;;;;;;;;;18.22;46.40;98579.47;5078691;28;19924;-62
2022/06/17 01:30:26;;;;;;;;;;;;;;;18.31;45.65;98582.88;5055332;28;20435;-62
2022/06/17 01:33:16;;;;;;;;;;;;;;;18.22;45.57;98582.22;5062998;28;19999;-62
2022/06/17 01:36:05;;;;;;;;;;;;;;;18.00;45.93;98588.16;5066951;28;20243;-62
2022/06/17 01:39:32;;;;;;;;;;;;;;;17.99;45.97;98592.06;5066456;28;19921;-61
2022/06/17 01:42:22;;;;;;;;;;;;;;;18.15;46.06;98589.41;5071927;28;19925;-61
2022/06/17 01:45:10;;;;;;;;;;;;;;;18.16;45.86;98591.00;5046600;28;19921;-61
2022/06/17 01:48:00;;;;;;;;;;;;;;;17.89;45.96;98582.31;5055805;28;19925;-63
2022/06/17 01:50:53;;;;;;;;;;;;;;;17.74;46.60;98578.31;5049410;28;19939;-62
2022/06/17 01:53:43;;;;;;;;;;;;;;;17.69;46.48;98573.00;5067021;28;19924;-62
2022/06/17 01:56:34;;;;;;;;;;;;;;;17.66;46.81;98576.44;5076698;28;19924;-61
2022/06/17 01:59:25;;;;;;;;;;;;;;;17.71;46.58;98587.19;5061608;28;20058;-58
2022/06/17 02:02:17;;;;;;;;;;;;;;;17.71;47.53;98587.19;5063969;28;19927;-62
2022/06/17 02:05:07;;;;;;;;;;;;;;;17.90;46.83;98583.13;5065155;28;19954;-62
2022/06/17 02:07:58;;;;;;;;;;;;;;;17.85;46.87;98580.63;5068075;28;20025;-62
2022/06/17 02:10:49;;;;;;;;;;;;;;;17.70;47.00;98584.81;5053487;28;19967;-61
2022/06/17 02:13:39;;;;;;;;;;;;;;;17.54;47.11;98585.47;5068743;28;20372;-62
2022/06/17 02:16:52;;;;;;;;;;;;;;;17.43;47.47;98580.75;5066540;28;20522;-62
2022/06/17 02:20:11;;;;;;;;;;;;;;;17.36;48.00;98583.22;5057874;28;20276;-61
2022/06/17 02:22:59;;;;;;;;;;;;;;;17.28;48.34;98573.94;5072299;28;20453;-62
2022/06/17 02:25:49;;;;;;;;;;;;;;;17.18;48.50;98583.41;5074398;28;20013;-62
2022/06/17 02:28:38;;;;;;;;;;;;;;;17.22;48.56;98598.06;5049873;28;20022;-62
2022/06/17 02:31:27;;;;;;;;;;;;;;;17.13;48.69;98604.78;5067602;28;19932;-62
2022/06/17 02:34:40;;;;;;;;;;;;;;;17.04;48.91;98602.09;5079017;28;19942;-60
2022/06/17 02:37:30;;;;;;;;;;;;;;;16.95;49.49;98595.91;5072246;28;19924;-62
2022/06/17 02:40:23;;;;;;;;;;;;;;;16.92;49.22;98585.59;5059733;28;19928;-61
2022/06/17 02:43:12;;;;;;;;;;;;;;;16.88;49.32;98590.16;5072469;28;19925;-65
2022/06/17 02:46:02;;;;;;;;;;;;;;;16.86;49.52;98589.69;5062520;28;19962;-62
2022/06/17 02:48:52;;;;;;;;;;;;;;;16.85;49.77;98585.34;5069311;28;19921;-61
2022/06/17 02:54:56;;;;;;;;;;;;;;;16.84;49.49;98581.81;5066148;28;19930;-62
2022/06/17 02:57:47;;;;;;;;;;;;;;;16.91;49.51;98600.47;5059525;28;20585;-61
2022/06/17 03:00:37;;;;;;;;;;;;;;;16.68;49.97;98600.78;5049782;28;19975;-61
2022/06/17 03:03:26;;;;;;;;;;;;;;;16.72;50.20;98604.50;5064420;28;20390;-60
2022/06/17 03:09:53;;;;;;;;;;;;;;;16.56;50.44;98605.38;5077554;28;19928;-58
2022/06/17 03:12:43;;;;;;;;;;;;;;;16.60;50.43;98604.38;5065847;28;19920;-62
2022/06/17 03:15:32;;;;;;;;;;;;;;;16.58;50.83;98603.94;5061247;28;20232;-62
2022/06/17 03:18:25;;;;;;;;;;;;;;;16.63;50.53;98605.66;5067914;28;19920;-62
2022/06/17 03:21:17;;;;;;;;;;;;;;;16.57;50.53;98609.75;5057480;28;19931;-62
2022/06/17 03:24:11;;;;;;;;;;;;;;;16.58;50.56;98606.66;5073728;28;20008;-61
2022/06/17 03:27:25;;;;;;;;;;;;;;;16.49;51.01;98612.19;5054778;28;20387;-63
2022/06/17 03:30:17;;;;;;;;;;;;;;;16.48;51.10;98615.28;5059499;28;19921;-63
2022/06/17 03:33:07;;;;;;;;;;;;;;;16.41;51.06;98606.78;5071494;28;19920;-61
2022/06/17 03:35:57;;;;;;;;;;;;;;;16.36;51.54;98606.97;5069211;28;19928;-62
2022/06/17 03:38:47;;;;;;;;;;;;;;;16.36;51.50;98605.03;5079747;28;19920;-63
2022/06/17 03:41:36;;;;;;;;;;;;;;;16.21;51.81;98603.69;5068162;28;19946;-62
2022/06/17 03:44:26;;;;;;;;;;;;;;;16.16;51.73;98612.09;5066729;28;19968;-62
2022/06/17 03:47:20;;;;;;;;;;;;;;;16.34;51.53;98622.94;5054020;28;19954;-62
2022/06/17 03:50:11;;;;;;;;;;;;;;;16.54;50.97;98622.19;5055787;28;20478;-63
2022/06/17 03:53:00;;;;;;;;;;;;;;;16.50;50.97;98635.75;5055538;28;20487;-62
2022/06/17 03:55:51;;;;;;;;;;;;;;;16.66;51.10;98646.13;5060938;28;19924;-62
2022/06/17 03:58:40;;;;;;;;;;;;;;;16.13;52.25;98648.38;5059269;28;19923;-60
2022/06/17 04:01:32;;;;;;;;;;;;;;;16.19;52.15;98655.31;5063581;28;19926;-65
2022/06/17 04:04:29;;;;;;;;;;;;;;;16.14;52.41;98652.75;5059521;28;19924;-64
2022/06/17 04:07:26;;;;;;;;;;;;;;;16.32;52.39;98655.41;5068650;28;20470;-65
2022/06/17 04:10:17;;;;;;;;;;;;;;;16.20;52.61;98659.66;5063413;28;19921;-62
2022/06/17 04:13:10;;;;;;;;;;;;;;;16.45;51.59;98657.88;5063531;28;19924;-62
2022/06/17 04:16:18;;;;;;;;;;;;;;;16.56;51.59;98666.53;5060687;28;19954;-63
2022/06/17 04:19:13;;;;;;;;;;;;;;;16.52;51.80;98662.88;5073297;28;19947;-64
2022/06/17 04:22:07;;;;;;;;;;;;;;;16.18;52.65;98663.84;5072156;28;20018;-64
2022/06/17 04:25:10;;;;;;;;;;;;;;;15.97;53.08;98666.50;5072099;28;19928;-64
2022/06/17 04:28:06;;;;;;;;;;;;;;;16.00;53.45;98665.84;5058290;28;19935;-63
2022/06/17 04:31:01;;;;;;;;;;;;;;;16.15;53.01;98665.31;5050780;28;19975;-62
2022/06/17 04:33:51;;;;;;;;;;;;;;;16.21;52.50;98672.22;5061934;28;20540;-64
2022/06/17 04:36:45;;;;;;;;;;;;;;;16.30;52.47;98677.66;5060652;28;20033;-65
2022/06/17 04:39:37;;;;;;;;;;;;;;;16.75;51.50;98675.16;5065368;28;19920;-64
2022/06/17 04:42:48;;;;;;;;;;;;;;;17.11;50.30;98673.78;5080704;28;20416;-63
2022/06/17 04:45:39;;;;;;;;;;;;;;;16.85;51.19;98678.66;5061025;28;19920;-64
2022/06/17 04:48:57;;;;;;;;;;;;;;;16.75;51.14;98672.41;5073024;28;19931;-60
2022/06/17 04:51:47;;;;;;;;;;;;;;;16.92;50.87;98671.47;5044847;28;19931;-63
2022/06/17 04:54:37;;;;;;;;;;;;;;;16.81;50.72;98673.03;5075722;28;19986;-63
2022/06/17 04:57:39;;;;;;;;;;;;;;;16.88;50.98;98680.72;5071211;28;20177;-64
2022/06/17 05:00:32;;;;;;;;;;;;;;;16.83;51.11;98684.50;5061105;28;20053;-65
2022/06/17 05:03:23;;;;;;;;;;;;;;;16.93;50.81;98691.50;5071683;28;20072;-65
2022/06/17 05:06:45;;;;;;;;;;;;;;;16.99;50.74;98691.00;5080700;28;19935;-63
2022/06/17 05:09:42;;;;;;;;;;;;;;;17.03;50.37;98691.09;5067614;28;20028;-64
2022/06/17 05:12:39;;;;;;;;;;;;;;;17.03;50.34;98694.66;5068871;28;20090;-65
2022/06/17 05:15:28;;;;;;;;;;;;;;;17.10;50.46;98694.13;5080946;28;19931;-63
2022/06/17 05:18:23;;;;;;;;;;;;;;;17.23;50.39;98704.03;5081162;28;20019;-64
2022/06/17 05:21:23;;;;;;;;;;;;;;;17.24;50.24;98699.34;5068430;28;19928;-65
2022/06/17 05:24:18;;;;;;;;;;;;;;;17.61;48.48;98700.28;5081715;28;19943;-64
2022/06/17 05:27:08;;;;;;;;;;;;;;;17.34;49.03;98707.16;5069815;28;19978;-63
2022/06/17 05:33:12;;;;;;;;;;;;;;;17.83;48.65;98714.81;5070597;28;19920;-62
2022/06/17 05:36:01;;;;;;;;;;;;;;;17.82;48.67;98708.50;5070646;28;19925;-61
2022/06/17 05:38:49;;;;;;;;;;;;;;;18.05;47.68;98711.66;5084483;28;20419;-63
2022/06/17 05:41:42;;;;;;;;;;;;;;;17.88;48.29;98717.34;5082432;28;19924;-62
2022/06/17 05:44:32;;;;;;;;;;;;;;;17.74;48.48;98712.19;5072479;28;19928;-61
2022/06/17 05:48:18;;;;;;;;;;;;;;;17.73;48.84;98716.84;5029309;28;19921;-58
2022/06/17 05:51:16;;;;;;;;;;;;;;;17.70;49.14;98728.50;5047940;28;19921;-61
2022/06/17 05:54:30;;;;;;;;;;;;;;;17.73;49.00;98733.34;5023740;28;20208;-63
2022/06/17 05:57:28;;;;;;;;;;;;;;;17.70;49.04;98725.75;5056583;28;19963;-59
2022/06/17 06:03:32;;;;;;;;;;;;;;;17.74;49.23;98734.97;5040633;28;19934;-60
2022/06/17 06:06:30;;;;;;;;;;;;;;;17.93;49.00;98730.88;5041158;28;19921;-62
2022/06/17 06:09:21;;;;;;;;;;;;;;;18.31;47.00;98742.41;5035161;28;20308;-63
2022/06/17 06:12:10;;;;;;;;;;;;;;;18.18;46.78;98743.53;5037812;28;19924;-62
2022/06/17 06:14:59;;;;;;;;;;;;;;;18.35;47.43;98736.22;5037831;28;19932;-62
2022/06/17 06:18:18;;;;;;;;;;;;;;;18.11;47.67;98745.22;5053263;28;19983;-61
2022/06/17 06:21:17;;;;;;;;;;;;;;;18.22;47.48;98754.69;5038985;28;19971;-63
2022/06/17 06:24:07;;;;;;;;;;;;;;;18.28;46.89;98747.81;5047006;28;19926;-62
2022/06/17 06:26:56;;;;;;;;;;;;;;;18.49;46.45;98755.97;5040099;28;19924;-62
2022/06/17 06:30:04;;;;;;;;;;;;;;;18.52;46.37;98758.81;5031057;28;20325;-62
2022/06/17 06:32:58;;;;;;;;;;;;;;;18.98;45.44;98759.53;5029255;28;20398;-60
2022/06/17 06:35:47;;;;;;;;;;;;;;;19.20;44.74;98766.50;5042485;28;19924;-61
2022/06/17 06:38:37;;;;;;;;;;;;;;;18.86;45.23;98762.31;5053162;28;19933;-62
2022/06/17 06:41:26;;;;;;;;;;;;;;;18.76;45.53;98747.06;5053592;28;19924;-62
2022/06/17 06:44:16;;;;;;;;;;;;;;;18.79;46.01;98762.88;5028091;28;19931;-61
2022/06/17 06:47:11;;;;;;;;;;;;;;;18.72;45.79;98759.09;5046349;28;19927;-62
2022/06/17 06:50:20;;;;;;;;;;;;;;;19.16;44.61;98765.59;5081832;28;20370;-63
2022/06/17 06:53:14;;;;;;;;;;;;;;;19.27;44.05;98766.72;5062500;28;19930;-62
2022/06/17 06:56:05;;;;;;;;;;;;;;;19.31;44.52;98767.63;5052777;28;19928;-61
2022/06/17 07:02:13;;;;;;;;;;;;;;;19.66;44.12;98775.38;5057808;28;20342;-62
2022/06/17 07:05:03;;;;;;;;;;;;;;;19.61;44.13;98773.66;5070729;28;19997;-62
2022/06/17 07:08:02;;;;;;;;;;;;;;;19.54;44.19;98773.41;5077217;28;19920;-62
2022/06/17 07:10:53;;;;;;;;;;;;;;;19.66;44.31;98775.38;5073797;28;19971;-62
2022/06/17 07:17:19;;;;;;;;;;;;;;;20.17;43.02;98774.78;5073812;28;19932;-60
2022/06/17 07:20:10;;;;;;;;;;;;;;;20.37;42.46;98774.53;5062151;28;19928;-63
2022/06/17 07:22:58;;;;;;;;;;;;;;;20.37;42.62;98788.34;5061654;28;20021;-62
2022/06/17 07:25:47;;;;;;;;;;;;;;;20.10;43.20;98789.97;5065387;28;19928;-61
2022/06/17 07:29:05;;;;;;;;;;;;;;;20.41;42.53;98786.47;5069630;28;19931;-62
2022/06/17 07:31:56;;;;;;;;;;;;;;;20.34;42.40;98786.28;5072307;28;20372;-63
2022/06/17 07:34:44;;;;;;;;;;;;;;;20.35;42.60;98787.09;5073747;28;19947;-62
2022/06/17 07:40:44;;;;;;;;;;;;;;;20.55;42.63;98785.25;5067236;28;20564;-63
2022/06/17 07:43:33;;;;;;;;;;;;;;;20.69;42.39;98785.63;5062692;28;19955;-62
2022/06/17 07:46:21;;;;;;;;;;;;;;;20.64;42.21;98789.44;5062291;28;20401;-61
2022/06/17 07:49:38;;;;;;;;;;;;;;;21.26;41.54;98789.72;5061400;28;19920;-63
2022/06/17 07:52:28;;;;;;;;;;;;;;;21.01;41.65;98788.34;5062465;28;20276;-62
2022/06/17 07:55:16;;;;;;;;;;;;;;;20.74;42.45;98790.88;5069385;28;19924;-62
2022/06/17 08:01:22;;;;;;;;;;;;;;;21.05;41.25;98800.28;5068077;28;19924;-62
2022/06/17 08:04:38;;;;;;;;;;;;;;;20.91;42.40;98804.31;5065683;28;19924;-63
2022/06/17 08:07:28;;;;;;;;;;;;;;;21.03;42.27;98806.16;5051228;28;19921;-61
2022/06/17 08:10:17;;;;;;;;;;;;;;;21.00;42.19;98800.56;5065898;28;20361;-62
2022/06/17 08:13:07;;;;;;;;;;;;;;;21.37;40.87;98809.34;5065055;28;19925;-62
2022/06/17 08:15:56;;;;;;;;;;;;;;;21.67;40.37;98798.50;5080235;28;20383;-63
2022/06/17 08:18:45;;;;;;;;;;;;;;;21.58;40.91;98800.72;5067595;28;20372;-62
2022/06/17 08:21:39;;;;;;;;;;;;;;;21.81;39.89;98809.88;5060802;28;20451;-64
2022/06/17 08:24:45;;;;;;;;;;;;;;;21.55;40.14;98806.94;5065654;28;20465;-64
2022/06/17 08:27:40;;;;;;;;;;;;;;;21.13;40.83;98802.03;5061354;28;20364;-62
2022/06/17 08:30:30;;;;;;;;;;;;;;;21.15;40.58;98811.59;5058573;28;19931;-62
2022/06/17 08:33:25;;;;;;;;;;;;;;;21.26;41.11;98803.53;5071940;28;19920;-62
2022/06/17 08:39:44;;;;;;;;;;;;;;;21.56;37.02;98794.72;5066569;28;19936;-63
2022/06/17 08:42:37;;;;;;;;;;;;;;;21.63;38.41;98806.75;5065674;28;20015;-62
2022/06/17 08:45:26;;;;;;;;;;;;;;;21.59;38.98;98805.88;5066453;28;19924;-61
2022/06/17 08:48:19;;;;;;;;;;;;;;;21.90;38.14;98804.94;5061891;28;20525;-63
2022/06/17 08:51:18;;;;;;;;;;;;;;;21.98;37.11;98801.13;5061551;28;19921;-64
2022/06/17 08:54:08;;;;;;;;;;;;;;;;;;5061148;28;19925;-62
2022/06/17 08:57:00;;;;;;;;;;;;;;;22.02;38.31;98800.41;5060852;28;19920;-62
2022/06/17 09:00:06;;;;;;;;;;;;;;;22.07;37.71;98800.91;5070178;28;19920;-62
2022/06/17 09:03:08;;;;;;;;;;;;;;;22.00;36.24;98794.41;5065370;28;19928;-64
2022/06/17 09:06:01;;;;;;;;;;;;;;;22.04;37.77;98792.53;5062282;28;20217;-64
2022/06/17 09:08:54;;;;;;;;;;;;;;;22.05;36.79;98794.94;5074054;28;19927;-62
2022/06/17 09:12:27;;;;;;;;;;;;;;;21.96;38.25;98789.63;5070292;28;20445;-62
2022/06/17 09:15:19;;;;;;;;;;;;;;;21.89;37.96;98792.28;5070401;28;20363;-63
2022/06/17 09:18:09;;;;;;;;;;;;;;;21.95;37.34;98782.50;5050218;28;19968;-61
2022/06/17 09:21:24;;;;;;;;;;;;;;;22.03;37.19;98774.34;5058170;28;19924;-61
2022/06/17 09:24:13;;;;;;;;;;;;;;;21.98;36.99;98773.47;5072672;28;20492;-62
2022/06/17 09:27:02;;;;;;;;;;;;;;;22.16;37.62;98765.53;5070662;28;19938;-62
2022/06/17 09:29:53;;;;;;;;;;;;;;;22.16;36.75;98775.81;5066882;28;20303;-61
2022/06/17 09:32:44;;;;;;;;;;;;;;;22.19;37.15;98770.31;5068713;28;20357;-61
2022/06/17 09:35:35;;;;;;;;;;;;;;;22.33;36.81;98777.31;5066183;28;20001;-62
2022/06/17 09:38:25;;;;;;;;;;;;;;;22.40;36.77;98778.22;5074829;28;20028;-61
2022/06/17 09:41:21;;;;;;;;;;;;;;;22.44;36.60;98768.00;5079110;28;20284;-61
2022/06/17 09:44:11;;;;;;;;;;;;;;;22.23;36.32;98768.44;5070328;28;19971;-62
2022/06/17 09:47:05;;;;;;;;;;;;;;;22.47;35.71;98763.69;5077509;28;19927;-61
2022/06/17 09:49:56;;;;;;;;;;;;;;;22.25;35.52;98764.50;5073306;28;20285;-62
2022/06/17 09:52:45;;;;;;;;;;;;;;;22.33;35.78;98761.50;5069333;28;19931;-61
2022/06/17 09:55:35;;;;;;;;;;;;;;;22.52;35.23;98765.34;5076928;28;19927;-62
2022/06/17 09:58:25;;;;;;;;;;;;;;;22.79;34.91;98769.75;5066995;28;20028;-62
2022/06/17 10:01:38;;;;;;;;;;;;;;;23.06;33.64;98765.06;5065700;28;20015;-62
2022/06/17 10:04:28;;;;;;;;;;;;;;;22.93;35.06;98761.72;5070400;28;19924;-61
2022/06/17 10:07:22;;;;;;;;;;;;;;;22.62;35.31;98762.75;5067610;28;19924;-60
2022/06/17 10:10:14;;;;;;;;;;;;;;;22.88;33.98;98758.47;5074040;28;19920;-61
2022/06/17 10:13:06;;;;;;;;;;;;;;;22.83;34.29;98756.75;5069333;28;19920;-61
2022/06/17 10:19:12;;;;;;;;;;;;;;;23.34;32.50;98764.69;5073260;28;20388;-62
2022/06/17 10:22:03;;;;;;;;;;;;;;;23.38;32.48;98759.97;5062269;28;19921;-61
2022/06/17 10:24:58;;;;;;;;;;;;;;;23.17;32.90;98756.88;5070613;28;20399;-61
2022/06/17 10:27:49;;;;;;;;;;;;;;;23.40;33.31;98759.59;5079578;28;19930;-61
2022/06/17 10:30:41;;;;;;;;;;;;;;;23.20;33.54;98764.47;5065179;28;19946;-62
2022/06/17 10:33:30;;;;;;;;;;;;;;;23.08;33.66;98767.47;5067790;28;19932;-61
2022/06/17 10:36:19;;;;;;;;;;;;;;;22.93;33.00;98753.41;5069004;28;19935;-61
2022/06/17 10:39:32;;;;;;;;;;;;;;;23.29;34.36;98755.88;5065680;28;19973;-61
2022/06/17 10:42:47;;;;;;;;;;;;;;;22.99;32.97;98754.66;5065731;28;20380;-61
2022/06/17 10:45:36;;;;;;;;;;;;;;;23.09;32.35;98746.88;5069599;28;20036;-61
2022/06/17 10:48:34;;;;;;;;;;;;;;;23.11;34.62;98752.84;5065622;28;20368;-60
2022/06/17 10:51:23;;;;;;;;;;;;;;;23.16;32.90;98747.78;5078778;28;19932;-57
2022/06/17 10:54:14;;;;;;;;;;;;;;;23.39;32.56;98750.47;5078661;28;19974;-60
2022/06/17 10:57:27;;;;;;;;;;;;;;;23.37;33.39;98747.28;5072172;28;19924;-62
2022/06/17 11:00:23;;;;;;;;;;;;;;;23.62;32.18;98755.13;5074785;28;20443;-61
2022/06/17 11:03:20;;;;;;;;;;;;;;;23.98;30.92;98754.41;5069963;28;19939;-61
2022/06/17 11:06:18;;;;;;;;;;;;;;;23.81;32.58;98749.44;5070220;28;19951;-60
2022/06/17 11:12:51;;;;;;;;;;;;;;;24.02;31.60;98746.91;5063393;28;20242;-62
2022/06/17 11:15:45;;;;;;;;;;;;;;;23.59;30.49;98744.78;5070168;28;19971;-61
2022/06/17 11:18:35;;;;;;;;;;;;;;;23.63;32.53;98742.88;5061667;28;20019;-58
2022/06/17 11:21:25;;;;;;;;;;;;;;;23.76;32.57;98741.47;5067871;28;20288;-61
2022/06/17 11:24:18;;;;;;;;;;;;;;;24.12;33.17;98741.81;5074348;28;19964;-62
2022/06/17 11:27:31;;;;;;;;;;;;;;;24.02;32.05;98741.34;5072167;28;20390;-58
2022/06/17 11:30:22;;;;;;;;;;;;;;;24.28;30.60;98739.59;5061735;28;19920;-62
2022/06/17 11:33:23;;;;;;;;;;;;;;;23.91;30.79;98732.09;5061721;28;19924;-61
2022/06/17 11:36:19;;;;;;;;;;;;;;;23.97;30.44;98730.59;5073256;28;20264;-60
2022/06/17 11:39:34;;;;;;;;;;;;;;;24.12;30.70;98737.06;5074136;28;19920;-62
2022/06/17 11:42:46;;;;;;;;;;;;;;;24.33;28.47;98724.56;5071805;28;19955;-62
2022/06/17 11:45:36;;;;;;;;;;;;;;;24.11;30.13;98715.25;5063959;28;19951;-61
2022/06/17 11:48:25;;;;;;;;;;;;;;;24.17;29.32;98706.19;5069390;28;20604;-61
2022/06/17 11:51:25;;;;;;;;;;;;;;;24.18;29.61;98712.53;5067638;28;19924;-61
2022/06/17 11:54:18;;;;;;;;;;;;;;;24.24;30.50;98703.50;5071144;28;19924;-61
2022/06/17 11:57:16;;;;;;;;;;;;;;;24.68;29.13;98715.78;5066312;28;19927;-60
2022/06/17 12:00:08;;;;;;;;;;;;;;;24.84;30.32;98710.72;5071988;28;19925;-62
2022/06/17 12:03:02;;;;;;;;;;;;;;;24.51;30.92;98709.69;5074837;28;20370;-60
2022/06/17 12:05:58;;;;;;;;;;;;;;;24.23;29.18;98709.41;5054694;28;19924;-60
2022/06/17 12:08:48;;;;;;;;;;;;;;;24.41;30.49;98699.31;5069685;28;19932;-61
2022/06/17 12:11:44;;;;;;;;;;;;;;;24.17;30.51;98702.63;5069470;28;19920;-62
2022/06/17 12:17:47;;;;;;;;;;;;;;;24.20;28.77;98699.09;5078060;28;19927;-58
2022/06/17 12:20:39;;;;;;;;;;;;;;;24.83;27.47;98692.47;5063508;28;20574;-64
2022/06/17 12:23:30;;;;;;;;;;;;;;;24.62;27.92;98692.31;5068904;28;20211;-61
2022/06/17 12:26:22;;;;;;;;;;;;;;;24.74;27.37;98694.78;5077377;28;20379;-62
2022/06/17 12:29:11;;;;;;;;;;;;;;;24.59;27.68;98693.06;5065561;28;19928;-61
2022/06/17 12:32:01;;;;;;;;;;;;;;;24.59;27.97;98696.66;5069251;28;20446;-61
2022/06/17 12:34:52;;;;;;;;;;;;;;;24.99;28.16;98704.06;5078947;28;19931;-60
2022/06/17 12:37:42;;;;;;;;;;;;;;;24.58;28.17;98692.28;5062916;28;20328;-62
2022/06/17 12:40:33;;;;;;;;;;;;;;;24.85;27.01;98686.50;5059252;28;20370;-60
2022/06/17 12:43:24;;;;;;;;;;;;;;;24.87;27.57;98682.13;5063049;28;19928;-60
2022/06/17 12:46:13;;;;;;;;;;;;;;;24.83;29.49;98678.56;5059314;28;20650;-60
2022/06/17 12:53:13;;;;;;;;;;;;;;;24.43;30.29;98680.25;5059042;28;20077;-60
2022/06/17 12:55:49;;;;;;;;;;;;;;;24.27;28.77;98686.06;5052043;28;19947;-60
2022/06/17 12:58:46;;;;;;;;;;;;;;;24.50;29.22;98682.28;5039525;28;19931;-61
2022/06/17 13:01:37;;;;;;;;;;;;;;;24.46;28.85;98681.47;5036440;28;19920;-60
2022/06/17 13:04:31;;;;;;;;;;;;;;;24.89;28.50;98670.66;5046297;28;19927;-61
2022/06/17 13:07:21;;;;;;;;;;;;;;;24.70;28.32;98672.50;5062888;28;20475;-60
2022/06/17 13:13:33;;;;;;;;;;;;;;;24.65;30.91;98670.09;5052694;28;20357;-61
2022/06/17 13:16:25;;;;;;;;;;;;;;;24.97;28.08;98664.72;5056569;28;19921;-61
2022/06/17 13:19:23;;;;;;;;;;;;;;;25.23;27.38;98666.47;5061482;28;19924;-60
2022/06/17 13:22:18;;;;;;;;;;;;;;;25.16;27.65;98655.34;5064329;28;20343;-61
2022/06/17 13:25:11;;;;;;;;;;;;;;;25.01;27.35;98665.56;5054596;28;19957;-62
2022/06/17 13:28:00;;;;;;;;;;;;;;;25.04;27.84;98659.22;5063270;28;19920;-60
2022/06/17 13:30:53;;;;;;;;;;;;;;;24.90;29.62;98664.72;5052513;28;20416;-62
2022/06/17 13:33:49;;;;;;;;;;;;;;;25.00;29.73;98655.63;5053709;28;20309;-61
2022/06/17 13:36:51;;;;;;;;;;;;;;;24.98;29.23;98658.00;5057634;28;19921;-60
2022/06/17 13:42:56;;;;;;;;;;;;;;;25.17;27.47;98651.38;5054278;28;20308;-60
2022/06/17 13:45:46;;;;;;;;;;;;;;;25.43;29.10;98653.06;5057372;28;19927;-60
2022/06/17 13:48:37;;;;;;;;;;;;;;;25.38;27.64;98649.88;5040564;28;19921;-60
2022/06/17 13:51:27;;;;;;;;;;;;;;;25.48;26.41;98644.34;5030337;28;20332;-59
2022/06/17 13:54:19;;;;;;;;;;;;;;;25.44;27.50;98649.06;5042470;28;20035;-60
2022/06/17 13:57:33;;;;;;;;;;;;;;;25.60;26.16;98637.59;5015824;28;19932;-61
2022/06/17 14:00:30;;;;;;;;;;;;;;;25.53;29.86;98643.16;5042662;28;19925;-58
2022/06/17 14:03:19;;;;;;;;;;;;;;;25.45;30.00;98644.31;5040950;28;20517;-59
2022/06/17 14:06:16;;;;;;;;;;;;;;;25.65;30.01;98639.22;5041284;28;20395;-59
2022/06/17 14:09:31;;;;;;;;;;;;;;;25.27;28.63;98625.59;5035738;28;20093;-60
2022/06/17 14:12:45;;;;;;;;;;;;;;;25.43;26.69;98628.03;5017164;28;20376;-60
2022/06/17 14:15:34;;;;;;;;;;;;;;;25.31;26.08;98618.06;5037897;28;19931;-60
2022/06/17 14:18:23;;;;;;;;;;;;;;;25.69;27.78;98632.47;5035565;28;19929;-57
2022/06/17 14:21:16;;;;;;;;;;;;;;;25.70;25.19;98627.69;5039071;28;20055;-61
2022/06/17 14:24:04;;;;;;;;;;;;;;;25.58;25.04;98624.09;5036232;28;20206;-60
2022/06/17 14:26:54;;;;;;;;;;;;;;;25.74;29.39;98632.09;5029032;28;19999;-58
2022/06/17 14:32:56;;;;;;;;;;;;;;;25.81;26.05;98623.75;5041404;28;20252;-61
2022/06/17 14:35:47;;;;;;;;;;;;;;;26.14;28.42;98630.13;5032510;28;19921;-59
2022/06/17 14:38:40;;;;;;;;;;;;;;;26.04;26.93;98628.94;5030818;28;19983;-61
2022/06/17 14:44:52;;;;;;;;;;;;;;;25.84;27.88;98628.53;5033417;28;20449;-60
2022/06/17 14:47:42;;;;;;;;;;;;;;;25.85;26.23;98619.00;5033647;28;19928;-60
2022/06/17 14:50:45;;;;;;;;;;;;;;;25.75;27.60;98618.97;5037656;28;19999;-60
2022/06/17 14:53:39;;;;;;;;;;;;;;;25.92;24.46;98622.97;5037994;28;19924;-61
2022/06/17 14:56:54;;;;;;;;;;;;;;;25.93;24.32;98622.56;5035180;28;20766;-60
2022/06/17 15:00:08;;;;;;;;;;;;;;;25.81;28.34;98625.75;4994776;28;20283;-60
2022/06/17 15:02:56;;;;;;;;;;;;;;;25.85;25.72;98618.19;5031206;28;19921;-62
2022/06/17 15:05:44;;;;;;;;;;;;;;;25.79;24.92;98625.34;5037402;28;19928;-61
2022/06/17 15:08:35;;;;;;;;;;;;;;;25.89;26.73;98607.88;5038277;28;19929;-61
2022/06/17 15:11:26;;;;;;;;;;;;;;;25.71;25.94;98613.38;5039630;28;19978;-61
2022/06/17 15:14:16;;;;;;;;;;;;;;;25.92;23.24;98607.06;5035723;28;19932;-60
2022/06/17 15:17:07;;;;;;;;;;;;;;;26.01;26.16;98598.31;5033868;28;19925;-61
2022/06/17 15:19:55;;;;;;;;;;;;;;;26.23;24.92;98610.25;5036315;28;19928;-61
2022/06/17 15:22:47;;;;;;;;;;;;;;;26.36;23.21;98605.84;5039051;28;20020;-61
2022/06/17 15:25:43;;;;;;;;;;;;;;;26.50;25.96;98610.66;5037848;28;20035;-62
2022/06/17 15:28:40;;;;;;;;;;;;;;;26.48;24.74;98599.91;5031686;28;19928;-61
2022/06/17 15:31:33;;;;;;;;;;;;;;;26.54;21.96;98598.31;5042380;28;19927;-61
2022/06/17 15:34:23;;;;;;;;;;;;;;;26.54;21.54;98603.88;5032102;28;19927;-61
2022/06/17 15:37:20;;;;;;;;;;;;;;;26.51;23.91;98596.31;5034466;28;19936;-61
2022/06/17 15:40:14;;;;;;;;;;;;;;;26.33;22.17;98581.59;5024463;28;19921;-62
2022/06/17 15:43:12;;;;;;;;;;;;;;;26.28;22.52;98576.44;5031880;28;20452;-60
2022/06/17 15:46:14;;;;;;;;;;;;;;;26.15;22.71;98575.22;5029546;28;20315;-62
2022/06/17 15:49:07;;;;;;;;;;;;;;;26.04;22.94;98578.03;5038442;28;19928;-62
2022/06/17 15:52:04;;;;;;;;;;;;;;;26.06;26.03;98578.44;5033166;28;20277;-61
2022/06/17 15:54:56;;;;;;;;;;;;;;;25.90;26.22;98584.41;5039149;28;19921;-58
2022/06/17 15:57:54;;;;;;;;;;;;;;;25.92;22.81;98582.00;5032996;28;19932;-61
2022/06/17 16:00:48;;;;;;;;;;;;;;;25.91;23.20;98587.97;5037116;28;19924;-61
2022/06/17 16:03:40;;;;;;;;;;;;;;;26.04;25.44;98589.97;5033524;28;19921;-62
2022/06/17 16:06:34;;;;;;;;;;;;;;;25.85;26.43;98596.72;5039452;28;20260;-61
2022/06/17 16:09:27;;;;;;;;;;;;;;;25.80;26.49;98593.53;5028655;28;19927;-61